createdAt,value
2018-04-19T00:01:22.269Z,61.10
2018-04-19T00:03:50.660Z,60.80
2018-04-19T00:06:19.841Z,59.90
2018-04-19T00:08:48.216Z,59.80
2018-04-19T00:11:16.701Z,59.80
2018-04-19T00:13:45.072Z,59.90
2018-04-19T00:16:13.500Z,60.00
2018-04-19T00:18:41.897Z,60.10
2018-04-19T00:21:10.292Z,59.90
2018-04-19T00:23:38.705Z,60.50
2018-04-19T00:26:07.088Z,60.50
2018-04-19T00:28:36.277Z,60.70
2018-04-19T00:31:04.669Z,60.50
2018-04-19T00:33:34.028Z,60.40
2018-04-19T00:36:02.430Z,60.30
2018-04-19T00:38:30.809Z,60.20
2018-04-19T00:40:59.209Z,60.00
2018-04-19T00:43:28.350Z,59.50
2018-04-19T00:45:56.751Z,59.50
2018-04-19T00:48:25.120Z,59.40
2018-04-19T00:50:53.788Z,59.30
2018-04-19T00:53:22.165Z,60.00
2018-04-19T00:55:50.545Z,60.40
2018-04-19T00:58:18.940Z,61.20
2018-04-19T01:00:47.338Z,61.80
2018-04-19T01:03:15.737Z,62.20
2018-04-19T01:05:44.876Z,62.40
2018-04-19T01:08:13.292Z,62.40
2018-04-19T01:10:41.674Z,62.40
2018-04-19T01:13:10.061Z,62.80
2018-04-19T01:15:39.231Z,62.80
2018-04-19T01:18:07.648Z,62.80
2018-04-19T01:20:36.825Z,62.90
2018-04-19T01:23:05.204Z,62.90
2018-04-19T01:25:33.615Z,62.70
2018-04-19T01:28:02.765Z,63.00
2018-04-19T01:30:31.168Z,62.90
2018-04-19T01:32:59.568Z,63.10
2018-04-19T01:35:46.728Z,63.10
2018-04-19T01:38:15.116Z,63.10
2018-04-19T01:40:43.493Z,63.10
2018-04-19T01:43:11.906Z,63.00
2018-04-19T01:45:41.072Z,63.30
2018-04-19T01:48:09.481Z,62.50
2018-04-19T01:50:38.620Z,62.70
2018-04-19T01:53:07.208Z,62.60
2018-04-19T01:55:35.596Z,62.70
2018-04-19T01:58:03.985Z,62.50
2018-04-19T02:00:32.389Z,62.40
2018-04-19T02:03:00.779Z,62.50
2018-04-19T02:05:29.974Z,62.40
2018-04-19T02:07:59.130Z,62.40
2018-04-19T02:10:27.539Z,62.40
2018-04-19T02:12:55.941Z,62.30
2018-04-19T02:15:25.086Z,62.50
2018-04-19T02:17:53.487Z,62.50
2018-04-19T02:20:22.636Z,62.80
2018-04-19T02:22:51.176Z,62.90
2018-04-19T02:25:20.340Z,62.60
2018-04-19T02:27:48.720Z,62.50
2018-04-19T02:30:17.125Z,62.40
2018-04-19T02:32:45.500Z,62.40
2018-04-19T02:35:15.422Z,62.40
2018-04-19T02:37:43.789Z,62.40
2018-04-19T02:40:12.220Z,62.30
2018-04-19T02:42:40.604Z,62.30
2018-04-19T02:45:08.977Z,62.30
2018-04-19T02:47:37.416Z,62.50
2018-04-19T02:50:06.585Z,62.90
2018-04-19T02:52:34.990Z,62.70
2018-04-19T02:55:03.388Z,62.90
2018-04-19T02:57:32.578Z,63.40
2018-04-19T03:00:01.732Z,63.50
2018-04-19T03:02:30.112Z,63.50
2018-04-19T03:04:58.512Z,63.30
2018-04-19T03:07:26.890Z,63.30
2018-04-19T03:09:55.292Z,63.50
2018-04-19T03:12:23.711Z,63.50
2018-04-19T03:14:52.100Z,63.70
2018-04-19T03:17:20.485Z,63.90
2018-04-19T03:19:48.888Z,64.30
2018-04-19T03:22:17.262Z,64.20
2018-04-19T03:24:45.650Z,64.50
2018-04-19T03:27:14.064Z,64.90
2018-04-19T03:29:42.441Z,65.00
2018-04-19T03:32:10.848Z,65.30
2018-04-19T03:34:39.237Z,65.10
2018-04-19T03:37:07.661Z,65.10
2018-04-19T03:39:36.809Z,64.60
2018-04-19T03:42:05.185Z,64.60
2018-04-19T03:44:33.587Z,64.30
2018-04-19T03:47:01.985Z,64.20
2018-04-19T03:49:31.152Z,64.50
2018-04-19T03:51:59.544Z,64.40
2018-04-19T03:54:28.305Z,64.40
2018-04-19T03:56:56.690Z,64.30
2018-04-19T03:59:25.065Z,64.70
2018-04-19T04:01:53.468Z,64.50
2018-04-19T04:04:21.842Z,64.40
2018-04-19T04:06:50.244Z,64.50
2018-04-19T04:09:19.385Z,64.60
2018-04-19T04:11:48.792Z,64.50
2018-04-19T04:14:17.525Z,64.30
2018-04-19T04:17:04.469Z,63.90
2018-04-19T04:19:50.541Z,63.90
2018-04-19T04:22:37.493Z,63.40
2018-04-19T04:25:06.603Z,63.40
2018-04-19T04:27:34.988Z,63.60
2018-04-19T04:30:03.414Z,63.70
2018-04-19T04:32:31.788Z,63.90
2018-04-19T04:35:00.957Z,64.00
2018-04-19T04:37:29.352Z,64.00
2018-04-19T04:39:58.696Z,64.00
2018-04-19T04:42:27.075Z,64.00
2018-04-19T04:44:55.453Z,64.00
2018-04-19T04:47:23.943Z,63.70
2018-04-19T04:49:52.324Z,64.20
2018-04-19T04:52:20.727Z,64.10
2018-04-19T04:54:49.109Z,64.00
2018-04-19T04:57:17.520Z,63.60
2018-04-19T04:59:46.669Z,63.60
2018-04-19T05:02:15.063Z,63.60
2018-04-19T05:04:43.477Z,63.40
2018-04-19T05:07:11.881Z,63.20
2018-04-19T05:09:40.280Z,62.90
2018-04-19T05:12:08.679Z,63.10
2018-04-19T05:14:37.345Z,62.90
2018-04-19T05:17:05.721Z,62.70
2018-04-19T05:19:34.097Z,63.00
2018-04-19T05:22:02.519Z,62.60
2018-04-19T05:24:31.722Z,62.60
2018-04-19T05:27:00.893Z,62.30
2018-04-19T05:29:29.280Z,62.10
2018-04-19T05:31:57.656Z,61.70
2018-04-19T05:34:26.986Z,61.70
2018-04-19T05:36:55.375Z,61.70
2018-04-19T05:39:23.772Z,62.10
2018-04-19T05:41:52.145Z,61.40
2018-04-19T05:44:20.569Z,61.40
2018-04-19T05:46:48.942Z,61.30
2018-04-19T05:49:17.332Z,61.20
2018-04-19T05:51:45.728Z,61.30
2018-04-19T05:54:14.872Z,61.90
2018-04-19T05:56:43.281Z,61.80
2018-04-19T05:59:11.673Z,61.30
2018-04-19T06:01:40.866Z,60.70
2018-04-19T06:04:09.242Z,60.60
2018-04-19T06:06:37.637Z,61.10
2018-04-19T06:09:06.825Z,60.10
2018-04-19T06:11:35.964Z,59.70
2018-04-19T06:14:04.389Z,59.70
2018-04-19T06:16:33.536Z,59.30
2018-04-19T06:19:02.240Z,59.40
2018-04-19T06:21:30.622Z,58.90
2018-04-19T06:23:59.029Z,58.30
2018-04-19T06:26:27.429Z,58.20
2018-04-19T06:28:56.568Z,57.60
2018-04-19T06:31:24.978Z,57.50
2018-04-19T06:33:53.357Z,57.30
2018-04-19T06:36:22.214Z,56.60
2018-04-19T06:38:50.595Z,56.30
2018-04-19T06:41:18.973Z,55.60
2018-04-19T06:43:47.365Z,55.50
2018-04-19T06:46:15.736Z,55.30
2018-04-19T06:48:44.132Z,55.10
2018-04-19T06:51:12.551Z,54.10
2018-04-19T06:53:42.120Z,53.60
2018-04-19T06:56:10.497Z,53.50
2018-04-19T06:58:38.877Z,53.70
2018-04-19T07:01:07.277Z,53.50
2018-04-19T07:03:36.424Z,52.40
2018-04-19T07:06:04.824Z,52.30
2018-04-19T07:08:33.210Z,52.40
2018-04-19T07:11:01.857Z,51.60
2018-04-19T07:13:30.241Z,51.70
2018-04-19T07:15:58.614Z,51.30
2018-04-19T07:18:27.029Z,51.10
2018-04-19T07:20:55.416Z,50.70
2018-04-19T07:23:23.830Z,50.10
2018-04-19T07:25:52.270Z,49.10
2018-04-19T07:28:20.814Z,48.80
2018-04-19T07:30:49.204Z,48.60
2018-04-19T07:33:17.589Z,48.10
2018-04-19T07:35:45.989Z,47.90
2018-04-19T07:38:15.140Z,47.40
2018-04-19T07:40:43.544Z,46.70
2018-04-19T07:43:11.933Z,46.30
2018-04-19T07:45:40.341Z,46.90
2018-04-19T07:48:09.497Z,45.60
2018-04-19T07:50:37.881Z,45.60
2018-04-19T07:53:06.285Z,46.70
2018-04-19T07:55:34.668Z,45.90
2018-04-19T07:58:03.848Z,44.80
2018-04-19T08:00:33.736Z,44.80
2018-04-19T08:03:02.320Z,44.60
2018-04-19T08:05:30.726Z,44.50
2018-04-19T08:07:59.870Z,44.20
2018-04-19T08:10:28.285Z,44.10
2018-04-19T08:12:56.665Z,43.90
2018-04-19T08:15:25.068Z,43.20
2018-04-19T08:17:53.445Z,42.90
2018-04-19T08:20:22.081Z,42.50
2018-04-19T08:22:50.461Z,42.40
2018-04-19T08:25:18.840Z,41.30
2018-04-19T08:27:47.253Z,41.60
2018-04-19T08:30:15.642Z,40.90
2018-04-19T08:32:44.047Z,41.50
2018-04-19T08:35:13.193Z,41.10
2018-04-19T08:37:42.359Z,41.10
2018-04-19T08:40:10.736Z,40.80
2018-04-19T08:42:39.117Z,40.60
2018-04-19T08:45:07.512Z,39.60
2018-04-19T08:47:35.895Z,39.40
2018-04-19T08:50:04.309Z,39.00
2018-04-19T08:52:32.681Z,39.10
2018-04-19T08:55:01.326Z,38.90
2018-04-19T08:57:29.710Z,38.10
2018-04-19T08:59:58.101Z,37.70
2018-04-19T09:02:26.505Z,38.70
2018-04-19T09:04:55.703Z,37.40
2018-04-19T09:07:24.876Z,37.40
2018-04-19T09:09:53.269Z,37.40
2018-04-19T09:12:21.976Z,37.00
2018-04-19T09:14:51.114Z,36.30
2018-04-19T09:17:19.507Z,36.30
2018-04-19T09:19:47.914Z,36.60
2018-04-19T09:22:17.793Z,36.20
2018-04-19T09:24:46.196Z,36.20
2018-04-19T09:27:14.577Z,36.20
2018-04-19T09:29:43.328Z,36.30
2018-04-19T09:32:11.705Z,35.50
2018-04-19T09:34:40.081Z,34.80
2018-04-19T09:37:08.480Z,35.30
2018-04-19T09:39:36.921Z,35.30
2018-04-19T09:42:05.289Z,35.00
2018-04-19T09:44:34.436Z,34.90
2018-04-19T09:47:03.040Z,35.40
2018-04-19T09:49:31.421Z,34.70
2018-04-19T09:51:59.797Z,34.20
2018-04-19T09:54:28.201Z,33.70
2018-04-19T09:56:57.344Z,33.40
2018-04-19T09:59:25.750Z,33.40
2018-04-19T10:02:09.012Z,33.00
2018-04-19T10:04:38.202Z,33.10
2018-04-19T10:07:07.355Z,32.80
2018-04-19T10:09:36.225Z,32.80
2018-04-19T10:12:04.619Z,32.40
2018-04-19T10:14:33.001Z,32.40
2018-04-19T10:17:01.404Z,32.50
2018-04-19T10:19:29.799Z,32.60
2018-04-19T10:21:58.974Z,32.20
2018-04-19T10:24:27.355Z,32.10
2018-04-19T10:26:55.789Z,31.30
2018-04-19T10:29:24.161Z,31.90
2018-04-19T10:31:52.770Z,31.50
2018-04-19T10:34:21.177Z,30.10
2018-04-19T10:36:51.069Z,29.20
2018-04-19T10:39:19.485Z,29.10
2018-04-19T10:41:48.621Z,28.80
2018-04-19T10:44:17.409Z,28.80
2018-04-19T10:46:45.802Z,28.60
2018-04-19T10:49:14.177Z,28.30
2018-04-19T10:51:42.567Z,27.90
2018-04-19T10:54:10.965Z,27.10
2018-04-19T10:56:39.385Z,27.80
2018-04-19T10:59:07.756Z,27.20
2018-04-19T11:01:37.132Z,28.30
2018-04-19T11:04:05.505Z,28.80
2018-04-19T11:06:33.905Z,28.20
2018-04-19T11:09:03.078Z,25.60
2018-04-19T11:11:31.457Z,25.60
2018-04-19T11:13:59.850Z,25.70
2018-04-19T11:16:29.110Z,25.60
2018-04-19T11:18:57.676Z,25.60
2018-04-19T11:21:26.065Z,26.10
2018-04-19T11:23:54.464Z,24.90
2018-04-19T11:26:22.876Z,24.40
2018-04-19T11:28:52.020Z,23.60
2018-04-19T11:31:20.427Z,23.60
2018-04-19T11:33:50.318Z,23.90
2018-04-19T11:36:18.733Z,23.90
2018-04-19T11:38:47.110Z,24.30
2018-04-19T11:41:15.488Z,24.40
2018-04-19T11:43:43.888Z,26.40
2018-04-19T11:46:13.084Z,26.10
2018-04-19T11:48:42.251Z,26.80
2018-04-19T11:51:10.637Z,26.70
2018-04-19T11:53:39.501Z,26.90
2018-04-19T11:56:07.883Z,27.50
2018-04-19T11:58:36.261Z,27.10
2018-04-19T12:01:04.667Z,26.50
2018-04-19T12:03:33.042Z,25.40
2018-04-19T12:06:01.441Z,25.30
2018-04-19T12:08:30.596Z,26.60
2018-04-19T12:10:58.997Z,26.50
2018-04-19T12:13:27.399Z,27.20
2018-04-19T12:15:56.554Z,25.60
2018-04-19T12:18:25.012Z,25.60
2018-04-19T12:20:53.408Z,26.80
2018-04-19T12:23:21.817Z,27.10
2018-04-19T12:25:50.979Z,25.90
2018-04-19T12:28:19.383Z,25.80
2018-04-19T12:30:47.760Z,25.80
2018-04-19T12:33:16.158Z,26.40
2018-04-19T12:35:45.313Z,27.10
2018-04-19T12:38:13.715Z,27.00
2018-04-19T12:40:42.113Z,27.60
2018-04-19T12:43:11.253Z,25.90
2018-04-19T12:45:39.660Z,25.80
2018-04-19T12:48:08.046Z,26.40
2018-04-19T12:50:36.606Z,26.90
2018-04-19T12:53:04.981Z,25.70
2018-04-19T12:55:33.360Z,23.60
2018-04-19T12:58:01.765Z,23.80
2018-04-19T13:00:30.141Z,24.10
2018-04-19T13:02:58.544Z,23.00
2018-04-19T13:05:27.697Z,23.50
2018-04-19T13:07:56.108Z,23.50
2018-04-19T13:10:25.269Z,23.40
2018-04-19T13:12:53.727Z,23.40
2018-04-19T13:15:22.830Z,23.30
2018-04-19T13:17:51.333Z,23.20
2018-04-19T13:20:19.704Z,22.10
2018-04-19T13:22:48.473Z,23.10
2018-04-19T13:25:16.841Z,23.40
2018-04-19T13:27:45.216Z,24.10
2018-04-19T13:30:13.604Z,23.70
2018-04-19T13:32:41.975Z,24.00
2018-04-19T13:35:10.361Z,24.70
2018-04-19T13:37:38.732Z,23.80
2018-04-19T13:40:07.141Z,23.30
2018-04-19T13:42:35.541Z,24.30
2018-04-19T13:45:03.943Z,23.50
2018-04-19T13:47:33.076Z,22.80
2018-04-19T13:50:01.471Z,22.70
2018-04-19T13:52:29.844Z,23.50
2018-04-19T13:54:58.252Z,23.50
2018-04-19T13:57:26.625Z,22.80
2018-04-19T13:59:55.022Z,23.00
2018-04-19T14:02:24.152Z,22.80
2018-04-19T14:04:52.549Z,22.70
2018-04-19T14:07:20.924Z,23.00
2018-04-19T14:09:49.334Z,23.20
2018-04-19T14:12:17.738Z,23.10
2018-04-19T14:14:46.874Z,23.00
2018-04-19T14:17:15.263Z,23.00
2018-04-19T14:19:43.649Z,23.00
2018-04-19T14:22:12.053Z,23.80
2018-04-19T14:24:40.420Z,24.00
2018-04-19T14:27:08.825Z,23.90
2018-04-19T14:29:37.956Z,24.00
2018-04-19T14:32:06.349Z,24.00
2018-04-19T14:34:34.712Z,23.80
2018-04-19T14:37:03.105Z,23.10
2018-04-19T14:39:31.472Z,23.00
2018-04-19T14:42:00.080Z,23.60
2018-04-19T14:44:28.453Z,23.60
2018-04-19T14:46:56.820Z,23.70
2018-04-19T14:49:25.217Z,23.50
2018-04-19T14:51:53.586Z,23.80
2018-04-19T14:54:21.986Z,22.30
2018-04-19T14:56:50.369Z,21.80
2018-04-19T14:59:18.790Z,23.00
2018-04-19T15:01:47.166Z,23.30
2018-04-19T15:04:15.556Z,23.30
2018-04-19T15:06:43.953Z,23.80
2018-04-19T15:09:12.331Z,23.60
2018-04-19T15:11:40.876Z,23.50
2018-04-19T15:14:09.260Z,23.80
2018-04-19T15:16:37.664Z,24.50
2018-04-19T15:19:06.042Z,24.20
2018-04-19T15:21:34.728Z,23.80
2018-04-19T15:24:03.106Z,24.30
2018-04-19T15:26:31.472Z,24.40
2018-04-19T15:29:00.266Z,24.40
2018-04-19T15:31:28.649Z,24.70
2018-04-19T15:33:57.097Z,24.40
2018-04-19T15:36:26.233Z,24.60
2018-04-19T15:38:54.913Z,24.60
2018-04-19T15:41:23.288Z,23.90
2018-04-19T15:43:51.663Z,24.10
2018-04-19T15:46:20.070Z,24.10
2018-04-19T15:48:48.460Z,24.40
2018-04-19T15:51:16.852Z,24.70
2018-04-19T15:53:45.235Z,25.20
2018-04-19T15:56:13.807Z,25.00
2018-04-19T15:58:42.184Z,24.80
2018-04-19T16:01:10.554Z,24.80
2018-04-19T16:03:38.954Z,24.80
2018-04-19T16:06:08.090Z,25.00
2018-04-19T16:08:36.480Z,25.00
2018-04-19T16:11:04.862Z,25.90
2018-04-19T16:13:33.441Z,26.10
2018-04-19T16:16:01.838Z,26.30
2018-04-19T16:18:30.205Z,26.20
2018-04-19T16:20:58.633Z,26.20
2018-04-19T16:23:27.004Z,25.80
2018-04-19T16:25:55.437Z,26.00
2018-04-19T16:28:23.957Z,26.60
2018-04-19T16:30:53.914Z,27.10
2018-04-19T16:33:22.289Z,27.10
2018-04-19T16:35:51.164Z,27.00
2018-04-19T16:38:20.325Z,27.90
2018-04-19T16:40:48.697Z,27.90
2018-04-19T16:43:17.110Z,27.80
2018-04-19T16:45:46.556Z,28.40
2018-04-19T16:48:15.037Z,28.30
2018-04-19T16:50:43.420Z,27.80
2018-04-19T16:53:11.839Z,28.10
2018-04-19T16:55:41.740Z,28.20
2018-04-19T16:58:10.154Z,28.20
2018-04-19T17:00:38.552Z,29.00
2018-04-19T17:03:06.927Z,28.70
2018-04-19T17:05:35.341Z,29.40
2018-04-19T17:08:03.815Z,29.40
2018-04-19T17:10:32.200Z,30.00
2018-04-19T17:13:00.590Z,30.20
2018-04-19T17:15:30.505Z,30.60
2018-04-19T17:17:58.896Z,30.50
2018-04-19T17:20:27.267Z,30.70
2018-04-19T17:22:56.025Z,31.30
2018-04-19T17:25:24.408Z,31.20
2018-04-19T17:27:53.090Z,31.50
2018-04-19T17:30:21.672Z,32.00
2018-04-19T17:32:50.061Z,32.20
2018-04-19T17:35:18.516Z,32.60
2018-04-19T17:37:46.911Z,33.10
2018-04-19T17:40:15.287Z,33.20
2018-04-19T17:42:43.678Z,33.70
2018-04-19T17:45:12.047Z,34.00
2018-04-19T17:47:40.494Z,34.10
2018-04-19T17:50:08.877Z,34.00
2018-04-19T17:52:37.520Z,34.10
2018-04-19T17:55:05.934Z,33.70
2018-04-19T17:57:34.394Z,34.20
2018-04-19T18:00:03.614Z,34.70
2018-04-19T18:02:31.999Z,34.50
2018-04-19T18:05:00.425Z,34.50
2018-04-19T18:07:28.853Z,34.70
2018-04-19T18:09:57.517Z,34.90
2018-04-19T18:12:25.928Z,35.30
2018-04-19T18:14:54.329Z,35.50
2018-04-19T18:17:22.737Z,35.70
2018-04-19T18:19:51.879Z,36.20
2018-04-19T18:22:20.309Z,35.70
2018-04-19T18:24:48.918Z,35.60
2018-04-19T18:27:23.012Z,35.90
2018-04-19T18:29:52.380Z,35.90
2018-04-19T18:32:20.776Z,36.20
2018-04-19T18:34:49.976Z,36.80
2018-04-19T18:37:18.535Z,36.80
2018-04-19T18:39:46.912Z,37.90
2018-04-19T18:42:15.324Z,39.00
2018-04-19T18:44:43.748Z,39.50
2018-04-19T18:47:12.132Z,39.80
2018-04-19T18:49:41.296Z,39.80
2018-04-19T18:52:09.701Z,40.20
2018-04-19T18:54:38.086Z,40.60
2018-04-19T18:57:06.565Z,40.40
2018-04-19T18:59:35.760Z,40.30
2018-04-19T19:02:04.134Z,40.10
2018-04-19T19:04:35.107Z,40.80
2018-04-19T19:07:05.304Z,41.60
2018-04-19T19:09:33.716Z,41.50
2018-04-19T19:12:03.409Z,41.80
2018-04-19T19:14:34.637Z,42.50
2018-04-19T19:17:21.240Z,43.00
2018-04-19T19:20:07.575Z,43.20
2018-04-19T19:22:36.045Z,43.10
2018-04-19T19:25:04.947Z,43.20
2018-04-19T19:27:33.634Z,43.00
2018-04-19T19:30:02.114Z,43.30
2018-04-19T19:32:30.540Z,43.60
2018-04-19T19:34:59.379Z,44.10
2018-04-19T19:37:28.366Z,44.40
2018-04-19T19:39:58.385Z,45.40
2018-04-19T19:42:26.863Z,45.20
2018-04-19T19:44:57.953Z,45.10
2018-04-19T19:47:26.363Z,44.80
2018-04-19T19:49:55.684Z,45.30
2018-04-19T19:52:24.810Z,45.40
2018-04-19T19:54:53.313Z,45.50
2018-04-19T19:57:21.834Z,45.70
2018-04-19T19:59:50.251Z,46.10
2018-04-19T20:02:18.629Z,45.70
2018-04-19T20:04:47.084Z,46.00
2018-04-19T20:07:15.600Z,45.80
2018-04-19T20:09:44.762Z,46.60
2018-04-19T20:12:13.149Z,45.90
2018-04-19T20:14:42.635Z,46.40
2018-04-19T20:17:11.829Z,46.20
2018-04-19T20:19:40.240Z,46.20
2018-04-19T20:22:09.005Z,46.50
2018-04-19T20:24:37.502Z,47.50
2018-04-19T20:27:06.795Z,48.60
2018-04-19T20:29:35.467Z,48.60
2018-04-19T20:32:04.352Z,49.20
2018-04-19T20:34:32.761Z,49.10
2018-04-19T20:37:01.336Z,49.70
2018-04-19T20:39:29.743Z,50.00
2018-04-19T20:41:58.887Z,50.10
2018-04-19T20:44:27.285Z,50.10
2018-04-19T20:46:56.217Z,50.10
2018-04-19T20:49:25.869Z,50.60
2018-04-19T20:51:54.354Z,50.60
2018-04-19T20:54:22.736Z,50.60
2018-04-19T20:56:51.136Z,50.60
2018-04-19T20:59:19.514Z,51.00
2018-04-19T21:01:48.030Z,50.70
2018-04-19T21:04:16.409Z,50.70
2018-04-19T21:06:44.833Z,50.70
2018-04-19T21:09:13.204Z,50.90
2018-04-19T21:11:41.617Z,50.80
2018-04-19T21:14:10.073Z,50.60
2018-04-19T21:16:38.447Z,50.90
2018-04-19T21:19:06.864Z,51.20
2018-04-19T21:21:36.031Z,51.50
2018-04-19T21:24:04.448Z,51.40
2018-04-19T21:26:33.593Z,51.50
2018-04-19T21:29:12.224Z,51.50
2018-04-19T21:34:36.518Z,51.40
2018-04-19T21:37:04.903Z,51.20
2018-04-19T21:39:33.468Z,51.10
2018-04-19T21:42:02.742Z,50.70
2018-04-19T21:44:31.141Z,50.70
2018-04-19T21:46:59.533Z,50.70
2018-04-19T21:49:27.935Z,50.90
2018-04-19T21:51:56.876Z,51.30
2018-04-19T21:54:25.257Z,51.20
2018-04-19T21:56:53.967Z,51.40
2018-04-19T21:59:22.352Z,51.60
2018-04-19T22:01:50.744Z,51.70
2018-04-19T22:04:19.157Z,51.70
2018-04-19T22:06:47.555Z,51.70
2018-04-19T22:09:16.058Z,51.70
2018-04-19T22:11:44.564Z,51.60
2018-04-19T22:14:13.236Z,51.70
2018-04-19T22:16:41.656Z,51.70
2018-04-19T22:19:10.805Z,51.60
2018-04-19T22:21:39.205Z,51.60
2018-04-19T22:24:07.582Z,51.60
2018-04-19T22:26:35.984Z,51.60
2018-04-19T22:29:05.133Z,51.60
2018-04-19T22:31:33.532Z,51.50
2018-04-19T22:34:03.003Z,51.70
2018-04-19T22:36:31.405Z,52.30
2018-04-19T22:38:59.803Z,52.20
2018-04-19T22:41:28.184Z,52.40
2018-04-19T22:43:56.603Z,52.30
2018-04-19T22:46:24.979Z,52.80
2018-04-19T22:48:53.400Z,53.20
2018-04-19T22:51:23.029Z,53.70
2018-04-19T22:53:51.406Z,54.00
2018-04-19T22:56:19.823Z,54.30
2018-04-19T22:58:48.200Z,54.80
2018-04-19T23:01:16.601Z,54.30
2018-04-19T23:03:45.441Z,54.60
2018-04-19T23:06:14.729Z,54.40
2018-04-19T23:08:43.113Z,55.30
2018-04-19T23:11:11.498Z,55.30
2018-04-19T23:13:41.257Z,55.80
2018-04-19T23:16:09.753Z,55.70
2018-04-19T23:18:38.165Z,55.60
2018-04-19T23:21:08.045Z,55.10
2018-04-19T23:23:36.730Z,55.00
2018-04-19T23:26:05.573Z,55.00
2018-04-19T23:28:35.600Z,54.70
2018-04-19T23:31:04.164Z,54.70
2018-04-19T23:33:33.301Z,54.80
2018-04-19T23:36:01.720Z,54.80
2018-04-19T23:38:30.093Z,54.80
2018-04-19T23:40:58.489Z,54.80
2018-04-19T23:43:26.865Z,55.00
2018-04-19T23:45:55.519Z,55.20
2018-04-19T23:48:23.909Z,55.10
2018-04-19T23:50:52.280Z,55.40
2018-04-19T23:53:20.687Z,55.50
2018-04-19T23:55:50.213Z,55.50
2018-04-19T23:58:18.684Z,55.70
